Weather at Châteauroux-Déols "Marcel Dassault" Airport

Public forecast

Using degrees Celsius for public forecast. Weather courtesy of forecast.io.

Current aviation weather report (METAR) for Châteauroux-Déols "Marcel Dassault" Airport

Retrieved 2022/08/16 18:00 UTC (28 minutes ago):

LFLX 161800Z AUTO VRB02KT CAVOK 23/19 Q1008 TEMPO VRB15G30KT 3500 TSRA BKN060CB

Aviation forecast (TAF) for Châteauroux-Déols "Marcel Dassault" Airport

Retrieved 2022/08/16 18:21 UTC (7 minutes ago):

TAF LFLX 161700Z 1618/1724 VRB04KT CAVOK PROB40 TEMPO 1618/1619 SHRA SCT040 BKN090TCU PROB30 TEMPO 1618/1619 VRB15G30KT 3500 TSRA BKN060CB TEMPO 1701/1718 4000 SHRA BKN060TCU PROB40 TEMPO 1703/1709 2500 SHRA BKN012 BKN050CB PROB40 TEMPO 1714/1718 24015G25KT 2500 TSRA SCT040CB